sensor_id;sensor_type;location;lat;lon;timestamp;pressure;altitude;pressure_sealevel;temperature;humidity
23361;BME280;11852;50.082;18.554;2022-07-25T03:59:13;98767.5;;;7.41;42.0
23361;BME280;11852;50.082;18.554;2022-07-25T04:02:49;98769.5;;;16.09;74.54
23361;BME280;11852;50.082;18.554;2022-07-25T04:13:13;98768.5;;;16.27;74.82
23361;BME280;11852;50.082;18.554;2022-07-25T04:24:37;98769.0;;;16.52;74.17
23361;BME280;11852;50.082;18.554;2022-07-25T04:27:14;98770.49;;;16.56;73.15
23361;BME280;11852;50.082;18.554;2022-07-25T04:29:41;98769.0;;;16.65;72.61
23361;BME280;11852;50.082;18.554;2022-07-25T04:31:20;98772.0;;;16.7;72.54
23361;BME280;11852;50.082;18.554;2022-07-25T04:37:47;98771.0;;;16.9;71.38
23361;BME280;11852;50.082;18.554;2022-07-25T04:38:58;98774.5;;;16.93;71.43
23361;BME280;11852;50.082;18.554;2022-07-25T04:40:14;98769.0;;;16.97;70.77
23361;BME280;11852;50.082;18.554;2022-07-25T04:46:47;98768.01;;;17.16;69.51
23361;BME280;11852;50.082;18.554;2022-07-25T04:51:35;98767.5;;;17.32;69.54
23361;BME280;11852;50.082;18.554;2022-07-25T04:53:27;98765.5;;;17.41;69.82
23361;BME280;11852;50.082;18.554;2022-07-25T04:54:57;98765.0;;;17.47;69.96
23361;BME280;11852;50.082;18.554;2022-07-25T04:57:02;98765.0;;;17.42;69.11
23361;BME280;11852;50.082;18.554;2022-07-25T05:00:58;98760.0;;;17.51;67.64
23361;BME280;11852;50.082;18.554;2022-07-25T05:02:04;98761.5;;;17.56;67.46
23361;BME280;11852;50.082;18.554;2022-07-25T05:04:34;98760.0;;;17.65;66.98
23361;BME280;11852;50.082;18.554;2022-07-25T05:07:55;98751.5;;;17.76;66.01
23361;BME280;11852;50.082;18.554;2022-07-25T05:09:28;98747.0;;;17.76;66.23
23361;BME280;11852;50.082;18.554;2022-07-25T05:14:29;98751.5;;;17.91;66.5
23361;BME280;11852;50.082;18.554;2022-07-25T05:18:14;98749.5;;;18.01;65.96
23361;BME280;11852;50.082;18.554;2022-07-25T05:28:24;98745.5;;;18.3;63.75
23361;BME280;11852;50.082;18.554;2022-07-25T05:31:12;98741.0;;;18.47;63.74
23361;BME280;11852;50.082;18.554;2022-07-25T05:33:24;98740.5;;;18.52;63.92
23361;BME280;11852;50.082;18.554;2022-07-25T05:35:06;98735.0;;;18.58;64.04
23361;BME280;11852;50.082;18.554;2022-07-25T05:36:51;98735.5;;;18.69;64.06
23361;BME280;11852;50.082;18.554;2022-07-25T05:41:24;98729.5;;;18.75;63.78
23361;BME280;11852;50.082;18.554;2022-07-25T05:52:08;98725.5;;;19.19;61.75
23361;BME280;11852;50.082;18.554;2022-07-25T06:07:52;98717.5;;;19.9;58.73
23361;BME280;11852;50.082;18.554;2022-07-25T06:09:37;98716.5;;;19.95;58.58
23361;BME280;11852;50.082;18.554;2022-07-25T06:13:58;98715.5;;;20.31;56.83
23361;BME280;11852;50.082;18.554;2022-07-25T06:15:42;98716.0;;;20.42;56.54
23361;BME280;11852;50.082;18.554;2022-07-25T06:56:59;98692.0;;;22.77;48.5
23361;BME280;11852;50.082;18.554;2022-07-25T09:04:16;98594.0;;;28.02;33.74
23361;BME280;11852;50.082;18.554;2022-07-25T09:09:29;98592.01;;;28.1;33.8
23361;BME280;11852;50.082;18.554;2022-07-25T09:10:53;98590.0;;;28.08;33.58
23361;BME280;11852;50.082;18.554;2022-07-25T09:12:26;98589.5;;;28.05;33.52
23361;BME280;11852;50.082;18.554;2022-07-25T09:18:36;98583.5;;;28.38;33.51
23361;BME280;11852;50.082;18.554;2022-07-25T11:13:16;98466.5;;;30.01;29.6
23361;BME280;11852;50.082;18.554;2022-07-25T11:22:40;98456.5;;;30.14;27.19
23361;BME280;11852;50.082;18.554;2022-07-25T12:17:53;98370.49;;;30.76;27.34
23361;BME280;11852;50.082;18.554;2022-07-25T12:21:36;98363.0;;;30.35;26.64
23361;BME280;11852;50.082;18.554;2022-07-25T12:25:02;98356.0;;;30.34;27.07
23361;BME280;11852;50.082;18.554;2022-07-25T12:26:45;98359.5;;;30.3;28.06
23361;BME280;11852;50.082;18.554;2022-07-25T12:28:33;98353.0;;;30.4;27.92
23361;BME280;11852;50.082;18.554;2022-07-25T12:35:42;98347.0;;;30.31;28.13
23361;BME280;11852;50.082;18.554;2022-07-25T12:38:24;98347.0;;;30.65;27.36
23361;BME280;11852;50.082;18.554;2022-07-25T12:42:24;98341.5;;;30.64;26.26
23361;BME280;11852;50.082;18.554;2022-07-25T12:44:05;98343.0;;;30.63;26.7
23361;BME280;11852;50.082;18.554;2022-07-25T12:45:47;98336.5;;;30.2;26.84
23361;BME280;11852;50.082;18.554;2022-07-25T12:47:43;98336.0;;;30.22;27.22
23361;BME280;11852;50.082;18.554;2022-07-25T13:07:05;98324.0;;;30.49;27.29
23361;BME280;11852;50.082;18.554;2022-07-25T13:08:41;98308.5;;;30.49;27.53
23361;BME280;11852;50.082;18.554;2022-07-25T13:14:01;98300.0;;;30.76;28.4
23361;BME280;11852;50.082;18.554;2022-07-25T13:20:29;98296.5;;;30.67;27.51
23361;BME280;11852;50.082;18.554;2022-07-25T13:22:39;98289.0;;;30.67;26.95
23361;BME280;11852;50.082;18.554;2022-07-25T13:28:46;98277.5;;;30.53;27.41
23361;BME280;11852;50.082;18.554;2022-07-25T13:30:26;98276.0;;;30.61;26.42
23361;BME280;11852;50.082;18.554;2022-07-25T13:31:31;98277.0;;;30.64;26.67
23361;BME280;11852;50.082;18.554;2022-07-25T13:32:36;98276.5;;;30.68;27.35
23361;BME280;11852;50.082;18.554;2022-07-25T13:33:42;98275.0;;;30.56;27.05
23361;BME280;11852;50.082;18.554;2022-07-25T13:34:46;98273.5;;;30.52;27.1
23361;BME280;11852;50.082;18.554;2022-07-25T13:35:51;98271.5;;;30.48;27.81
23361;BME280;11852;50.082;18.554;2022-07-25T13:36:56;98270.49;;;30.48;28.98
23361;BME280;11852;50.082;18.554;2022-07-25T13:38:02;98276.0;;;30.48;28.28
23361;BME280;11852;50.082;18.554;2022-07-25T13:39:07;98270.49;;;30.55;27.92
23361;BME280;11852;50.082;18.554;2022-07-25T13:40:11;98273.0;;;30.6;28.4
23361;BME280;11852;50.082;18.554;2022-07-25T13:41:16;98272.0;;;30.67;27.67
23361;BME280;11852;50.082;18.554;2022-07-25T13:42:21;98268.0;;;30.56;27.99
23361;BME280;11852;50.082;18.554;2022-07-25T13:43:25;98267.0;;;30.6;28.17
23361;BME280;11852;50.082;18.554;2022-07-25T13:44:30;98267.01;;;30.57;28.27
23361;BME280;11852;50.082;18.554;2022-07-25T13:45:35;98266.5;;;30.72;28.34
23361;BME280;11852;50.082;18.554;2022-07-25T13:46:41;98264.0;;;30.77;27.88
23361;BME280;11852;50.082;18.554;2022-07-25T13:47:46;98262.0;;;30.77;27.9
23361;BME280;11852;50.082;18.554;2022-07-25T13:48:51;98256.5;;;30.67;27.52
23361;BME280;11852;50.082;18.554;2022-07-25T13:49:56;98257.49;;;30.67;27.61
23361;BME280;11852;50.082;18.554;2022-07-25T13:51:01;98248.5;;;30.57;27.24
23361;BME280;11852;50.082;18.554;2022-07-25T13:52:10;98248.5;;;30.42;27.4
23361;BME280;11852;50.082;18.554;2022-07-25T13:53:19;98248.5;;;30.47;26.86
23361;BME280;11852;50.082;18.554;2022-07-25T13:54:23;98242.5;;;30.39;27.91
23361;BME280;11852;50.082;18.554;2022-07-25T13:55:31;98242.5;;;30.2;27.6
23361;BME280;11852;50.082;18.554;2022-07-25T13:56:36;98241.5;;;30.26;27.04
23361;BME280;11852;50.082;18.554;2022-07-25T13:57:41;98242.51;;;30.3;27.39
23361;BME280;11852;50.082;18.554;2022-07-25T13:58:51;98241.0;;;30.38;28.26
23361;BME280;11852;50.082;18.554;2022-07-25T13:59:56;98237.0;;;30.51;27.97
23361;BME280;11852;50.082;18.554;2022-07-25T14:01:00;98239.0;;;30.59;28.18
23361;BME280;11852;50.082;18.554;2022-07-25T14:02:07;98231.99;;;30.65;28.76
23361;BME280;11852;50.082;18.554;2022-07-25T14:03:12;98232.5;;;30.78;29.44
23361;BME280;11852;50.082;18.554;2022-07-25T14:04:17;98232.5;;;30.74;29.28
23361;BME280;11852;50.082;18.554;2022-07-25T14:05:22;98232.0;;;30.69;27.78
23361;BME280;11852;50.082;18.554;2022-07-25T14:06:27;98229.51;;;30.73;27.19
23361;BME280;11852;50.082;18.554;2022-07-25T14:07:34;98229.0;;;30.72;27.02
23361;BME280;11852;50.082;18.554;2022-07-25T14:08:40;98230.5;;;30.7;27.38
23361;BME280;11852;50.082;18.554;2022-07-25T14:09:49;98227.5;;;30.7;27.14
23361;BME280;11852;50.082;18.554;2022-07-25T14:10:54;98230.0;;;30.69;27.47
23361;BME280;11852;50.082;18.554;2022-07-25T14:11:59;98225.5;;;30.6;27.49
23361;BME280;11852;50.082;18.554;2022-07-25T14:13:04;98222.5;;;30.58;27.31
23361;BME280;11852;50.082;18.554;2022-07-25T14:14:10;98222.0;;;30.56;27.36
23361;BME280;11852;50.082;18.554;2022-07-25T14:15:15;98222.0;;;30.43;27.68
23361;BME280;11852;50.082;18.554;2022-07-25T14:16:21;98219.0;;;30.54;27.06
23361;BME280;11852;50.082;18.554;2022-07-25T14:17:25;98217.01;;;30.58;27.45
23361;BME280;11852;50.082;18.554;2022-07-25T14:18:30;98213.5;;;30.58;27.68
23361;BME280;11852;50.082;18.554;2022-07-25T14:19:35;98214.5;;;30.5;28.02
23361;BME280;11852;50.082;18.554;2022-07-25T14:20:39;98213.5;;;30.5;28.19
23361;BME280;11852;50.082;18.554;2022-07-25T14:21:47;98214.0;;;30.56;27.95
23361;BME280;11852;50.082;18.554;2022-07-25T14:22:53;98211.0;;;30.6;28.19
23361;BME280;11852;50.082;18.554;2022-07-25T14:24:02;98209.0;;;30.69;27.79
23361;BME280;11852;50.082;18.554;2022-07-25T14:25:07;98206.5;;;30.65;27.45
23361;BME280;11852;50.082;18.554;2022-07-25T14:26:12;98204.0;;;30.72;27.88
23361;BME280;11852;50.082;18.554;2022-07-25T14:27:17;98205.0;;;30.78;28.7
23361;BME280;11852;50.082;18.554;2022-07-25T14:28:28;98200.0;;;30.64;28.94
23361;BME280;11852;50.082;18.554;2022-07-25T14:29:36;98198.0;;;30.66;28.4
23361;BME280;11852;50.082;18.554;2022-07-25T14:30:41;98198.5;;;30.61;28.57
23361;BME280;11852;50.082;18.554;2022-07-25T14:31:46;98198.0;;;30.65;28.5
23361;BME280;11852;50.082;18.554;2022-07-25T14:32:54;98195.49;;;30.69;29.24
23361;BME280;11852;50.082;18.554;2022-07-25T14:33:59;98198.5;;;30.74;29.18
23361;BME280;11852;50.082;18.554;2022-07-25T14:35:03;98195.49;;;30.74;28.91
23361;BME280;11852;50.082;18.554;2022-07-25T14:36:08;98195.49;;;30.83;27.88
23361;BME280;11852;50.082;18.554;2022-07-25T14:37:13;98191.0;;;30.82;28.84
23361;BME280;11852;50.082;18.554;2022-07-25T14:38:34;98187.5;;;30.89;28.35
23361;BME280;11852;50.082;18.554;2022-07-25T14:39:36;98184.5;;;30.84;28.46
23361;BME280;11852;50.082;18.554;2022-07-25T14:43:10;98177.0;;;30.86;28.62
23361;BME280;11852;50.082;18.554;2022-07-25T14:44:21;98175.5;;;30.93;28.93
23361;BME280;11852;50.082;18.554;2022-07-25T14:45:39;98176.0;;;31.01;30.16
23361;BME280;11852;50.082;18.554;2022-07-25T14:47:42;98169.5;;;31.08;29.36
23361;BME280;11852;50.082;18.554;2022-07-25T14:53:30;98165.5;;;31.16;29.28
23361;BME280;11852;50.082;18.554;2022-07-25T14:54:34;98164.0;;;31.16;28.7
23361;BME280;11852;50.082;18.554;2022-07-25T14:55:44;98167.0;;;31.21;28.79
23361;BME280;11852;50.082;18.554;2022-07-25T14:57:13;98164.5;;;31.23;28.76
23361;BME280;11852;50.082;18.554;2022-07-25T14:58:17;98164.0;;;31.28;27.9
23361;BME280;11852;50.082;18.554;2022-07-25T15:00:54;98160.0;;;31.24;28.11
23361;BME280;11852;50.082;18.554;2022-07-25T15:02:00;98159.0;;;31.22;28.13
23361;BME280;11852;50.082;18.554;2022-07-25T15:03:04;98155.01;;;31.03;28.33
23361;BME280;11852;50.082;18.554;2022-07-25T15:04:28;98153.5;;;31.03;28.2
23361;BME280;11852;50.082;18.554;2022-07-25T15:05:33;98153.0;;;30.93;28.14
23361;BME280;11852;50.082;18.554;2022-07-25T15:06:37;98148.5;;;30.92;29.01
23361;BME280;11852;50.082;18.554;2022-07-25T15:07:42;98146.0;;;30.86;28.81
23361;BME280;11852;50.082;18.554;2022-07-25T15:09:09;98147.0;;;30.93;29.01
23361;BME280;11852;50.082;18.554;2022-07-25T15:10:25;98146.0;;;30.93;28.58
23361;BME280;11852;50.082;18.554;2022-07-25T15:11:31;98147.0;;;30.96;28.6
23361;BME280;11852;50.082;18.554;2022-07-25T15:12:41;98145.0;;;30.92;28.49
23361;BME280;11852;50.082;18.554;2022-07-25T15:13:48;98141.0;;;30.92;29.06
23361;BME280;11852;50.082;18.554;2022-07-25T15:14:53;98140.0;;;30.94;29.53
23361;BME280;11852;50.082;18.554;2022-07-25T15:16:00;98143.0;;;30.97;29.74
23361;BME280;11852;50.082;18.554;2022-07-25T15:17:10;98141.5;;;31.0;29.44
23361;BME280;11852;50.082;18.554;2022-07-25T15:18:40;98138.5;;;30.99;29.68
23361;BME280;11852;50.082;18.554;2022-07-25T15:19:53;98134.5;;;31.05;30.14
23361;BME280;11852;50.082;18.554;2022-07-25T15:21:39;98136.0;;;31.06;29.51
23361;BME280;11852;50.082;18.554;2022-07-25T15:23:04;98132.99;;;31.08;30.01
23361;BME280;11852;50.082;18.554;2022-07-25T15:24:24;98135.5;;;31.08;30.24
23361;BME280;11852;50.082;18.554;2022-07-25T15:26:13;98134.0;;;31.13;29.87
23361;BME280;11852;50.082;18.554;2022-07-25T15:28:53;98131.5;;;31.18;29.64
23361;BME280;11852;50.082;18.554;2022-07-25T15:29:58;98129.5;;;31.17;28.48
23361;BME280;11852;50.082;18.554;2022-07-25T15:31:12;98131.5;;;31.17;28.6
23361;BME280;11852;50.082;18.554;2022-07-25T15:32:59;98129.0;;;31.12;28.49
23361;BME280;11852;50.082;18.554;2022-07-25T15:34:06;98128.5;;;31.03;28.75
23361;BME280;11852;50.082;18.554;2022-07-25T15:35:29;98125.5;;;31.05;29.43
23361;BME280;11852;50.082;18.554;2022-07-25T15:36:37;98127.0;;;31.0;29.78
23361;BME280;11852;50.082;18.554;2022-07-25T15:37:42;98130.5;;;30.99;30.52
23361;BME280;11852;50.082;18.554;2022-07-25T15:38:56;98129.5;;;30.94;30.42
23361;BME280;11852;50.082;18.554;2022-07-25T15:40:02;98127.5;;;30.89;30.56
23361;BME280;11852;50.082;18.554;2022-07-25T15:43:39;98128.0;;;30.82;29.9
23361;BME280;11852;50.082;18.554;2022-07-25T15:44:53;98127.0;;;30.72;30.48
23361;BME280;11852;50.082;18.554;2022-07-25T15:46:45;98122.5;;;30.78;30.77
23361;BME280;11852;50.082;18.554;2022-07-25T15:47:57;98121.0;;;30.78;30.31
23361;BME280;11852;50.082;18.554;2022-07-25T15:49:02;98120.49;;;30.81;30.45
23361;BME280;11852;50.082;18.554;2022-07-25T15:50:24;98118.5;;;30.83;30.77
23361;BME280;11852;50.082;18.554;2022-07-25T15:51:40;98118.5;;;30.81;30.31
23361;BME280;11852;50.082;18.554;2022-07-25T15:52:47;98114.5;;;30.81;29.54
23361;BME280;11852;50.082;18.554;2022-07-25T15:54:22;98113.0;;;30.82;30.22
23361;BME280;11852;50.082;18.554;2022-07-25T15:55:37;98116.0;;;30.72;30.83
23361;BME280;11852;50.082;18.554;2022-07-25T15:56:43;98113.0;;;30.62;30.6
23361;BME280;11852;50.082;18.554;2022-07-25T16:00:37;98110.5;;;30.66;29.17
23361;BME280;11852;50.082;18.554;2022-07-25T16:02:40;98109.5;;;30.64;29.58
23361;BME280;11852;50.082;18.554;2022-07-25T16:04:56;98109.0;;;30.6;30.5
23361;BME280;11852;50.082;18.554;2022-07-25T16:11:23;98099.5;;;30.54;30.03
23361;BME280;11852;50.082;18.554;2022-07-25T16:12:28;98101.0;;;30.53;30.38
23361;BME280;11852;50.082;18.554;2022-07-25T16:14:13;98100.0;;;30.51;30.36
23361;BME280;11852;50.082;18.554;2022-07-25T16:15:22;98097.0;;;30.52;31.22
23361;BME280;11852;50.082;18.554;2022-07-25T16:16:26;98095.5;;;30.51;31.83
23361;BME280;11852;50.082;18.554;2022-07-25T16:17:32;98094.0;;;30.49;31.67
23361;BME280;11852;50.082;18.554;2022-07-25T16:19:32;98093.5;;;30.48;31.13
23361;BME280;11852;50.082;18.554;2022-07-25T16:20:36;98094.0;;;30.47;31.08
23361;BME280;11852;50.082;18.554;2022-07-25T16:22:48;98091.0;;;30.44;30.56
23361;BME280;11852;50.082;18.554;2022-07-25T16:23:53;98092.5;;;30.44;30.94
23361;BME280;11852;50.082;18.554;2022-07-25T16:25:11;98089.5;;;30.43;30.6
23361;BME280;11852;50.082;18.554;2022-07-25T16:26:36;98088.0;;;30.36;31.1
23361;BME280;11852;50.082;18.554;2022-07-25T16:28:21;98087.0;;;30.33;31.12
23361;BME280;11852;50.082;18.554;2022-07-25T16:31:05;98086.0;;;30.31;31.22
23361;BME280;11852;50.082;18.554;2022-07-25T16:32:12;98081.0;;;30.28;31.28
23361;BME280;11852;50.082;18.554;2022-07-25T16:33:21;98081.0;;;30.3;31.14
23361;BME280;11852;50.082;18.554;2022-07-25T16:34:27;98084.0;;;30.22;31.58
23361;BME280;11852;50.082;18.554;2022-07-25T16:35:36;98081.5;;;30.19;31.75
23361;BME280;11852;50.082;18.554;2022-07-25T16:36:39;98084.0;;;30.17;31.66
23361;BME280;11852;50.082;18.554;2022-07-25T16:37:44;98080.0;;;30.17;31.55
23361;BME280;11852;50.082;18.554;2022-07-25T16:39:20;98078.0;;;30.14;31.72
23361;BME280;11852;50.082;18.554;2022-07-25T16:40:25;98078.0;;;30.15;31.76
23361;BME280;11852;50.082;18.554;2022-07-25T16:41:29;98078.5;;;30.13;32.24
23361;BME280;11852;50.082;18.554;2022-07-25T16:42:38;98075.0;;;30.14;31.99
23361;BME280;11852;50.082;18.554;2022-07-25T16:43:53;98076.5;;;30.13;32.58
23361;BME280;11852;50.082;18.554;2022-07-25T16:56:31;98071.5;;;30.06;32.67
23361;BME280;11852;50.082;18.554;2022-07-25T16:58:52;98072.0;;;30.05;32.18
23361;BME280;11852;50.082;18.554;2022-07-25T17:07:48;98064.0;;;29.85;33.93
23361;BME280;11852;50.082;18.554;2022-07-25T17:12:21;98060.0;;;29.69;33.67
23361;BME280;11852;50.082;18.554;2022-07-25T17:13:27;98059.0;;;29.67;33.7
23361;BME280;11852;50.082;18.554;2022-07-25T17:14:32;98057.49;;;29.64;33.49
23361;BME280;11852;50.082;18.554;2022-07-25T17:15:37;98058.5;;;29.66;33.68
23361;BME280;11852;50.082;18.554;2022-07-25T17:16:42;98056.99;;;29.59;33.78
23361;BME280;11852;50.082;18.554;2022-07-25T17:17:47;98055.0;;;29.58;33.68
23361;BME280;11852;50.082;18.554;2022-07-25T17:18:53;98051.5;;;29.53;34.32
23361;BME280;11852;50.082;18.554;2022-07-25T17:19:58;98053.0;;;29.51;34.25
23361;BME280;11852;50.082;18.554;2022-07-25T17:21:02;98051.0;;;29.48;34.31
23361;BME280;11852;50.082;18.554;2022-07-25T17:22:07;98049.5;;;29.43;34.49
23361;BME280;11852;50.082;18.554;2022-07-25T17:23:45;98048.0;;;29.39;34.85
23361;BME280;11852;50.082;18.554;2022-07-25T17:24:51;98048.5;;;29.38;34.67
23361;BME280;11852;50.082;18.554;2022-07-25T17:25:56;98047.5;;;29.32;34.56
23361;BME280;11852;50.082;18.554;2022-07-25T17:27:06;98046.5;;;29.24;34.59
23361;BME280;11852;50.082;18.554;2022-07-25T17:28:11;98044.99;;;29.24;35.04
23361;BME280;11852;50.082;18.554;2022-07-25T17:29:18;98044.5;;;29.2;35.15
23361;BME280;11852;50.082;18.554;2022-07-25T17:30:22;98043.0;;;29.15;35.31
23361;BME280;11852;50.082;18.554;2022-07-25T17:31:30;98043.51;;;29.15;35.46
23361;BME280;11852;50.082;18.554;2022-07-25T17:32:45;98044.0;;;29.08;35.17
23361;BME280;11852;50.082;18.554;2022-07-25T17:33:49;98044.5;;;29.1;35.25
23361;BME280;11852;50.082;18.554;2022-07-25T17:34:55;98045.0;;;29.05;35.26
23361;BME280;11852;50.082;18.554;2022-07-25T17:35:59;98044.5;;;29.04;35.49
23361;BME280;11852;50.082;18.554;2022-07-25T17:37:05;98044.0;;;29.03;35.53
23361;BME280;11852;50.082;18.554;2022-07-25T17:38:12;98043.5;;;28.93;35.98
23361;BME280;11852;50.082;18.554;2022-07-25T17:39:31;98046.5;;;28.92;36.01
23361;BME280;11852;50.082;18.554;2022-07-25T17:40:36;98047.5;;;28.87;35.81
23361;BME280;11852;50.082;18.554;2022-07-25T17:41:42;98048.0;;;28.82;36.07
23361;BME280;11852;50.082;18.554;2022-07-25T17:42:47;98045.0;;;28.83;35.94
23361;BME280;11852;50.082;18.554;2022-07-25T17:43:52;98047.0;;;28.82;36.43
23361;BME280;11852;50.082;18.554;2022-07-25T17:45:01;98049.0;;;28.81;36.6
23361;BME280;11852;50.082;18.554;2022-07-25T17:46:21;98046.5;;;28.69;36.85
23361;BME280;11852;50.082;18.554;2022-07-25T17:47:25;98046.0;;;28.67;36.95
23361;BME280;11852;50.082;18.554;2022-07-25T17:48:32;98046.0;;;28.62;36.97
23361;BME280;11852;50.082;18.554;2022-07-25T17:49:38;98046.5;;;28.6;36.77
23361;BME280;11852;50.082;18.554;2022-07-25T17:51:08;98046.0;;;28.53;36.97
23361;BME280;11852;50.082;18.554;2022-07-25T17:52:13;98044.5;;;28.46;37.73
23361;BME280;11852;50.082;18.554;2022-07-25T17:53:17;98042.01;;;28.48;37.71
23361;BME280;11852;50.082;18.554;2022-07-25T17:54:21;98041.5;;;28.4;37.72
23361;BME280;11852;50.082;18.554;2022-07-25T17:55:29;98040.5;;;28.38;37.89
23361;BME280;11852;50.082;18.554;2022-07-25T17:56:39;98040.0;;;28.39;37.77
23361;BME280;11852;50.082;18.554;2022-07-25T18:02:16;98036.0;;;28.2;38.4
23361;BME280;11852;50.082;18.554;2022-07-25T18:13:24;98022.5;;;27.8;39.14
23361;BME280;11852;50.082;18.554;2022-07-25T18:35:02;98015.5;;;27.35;40.19
23361;BME280;11852;50.082;18.554;2022-07-25T18:37:23;98011.5;;;26.99;41.21
23361;BME280;11852;50.082;18.554;2022-07-25T18:38:28;98012.5;;;26.92;41.74
23361;BME280;11852;50.082;18.554;2022-07-25T18:39:33;98009.5;;;26.89;41.66
23361;BME280;11852;50.082;18.554;2022-07-25T18:40:41;98011.0;;;26.85;41.93
23361;BME280;11852;50.082;18.554;2022-07-25T18:41:51;98011.5;;;26.72;42.34
23361;BME280;11852;50.082;18.554;2022-07-25T18:43:00;98007.99;;;26.69;42.24
23361;BME280;11852;50.082;18.554;2022-07-25T18:44:18;98006.0;;;26.65;42.18
23361;BME280;11852;50.082;18.554;2022-07-25T18:45:23;98003.5;;;26.61;42.38
23361;BME280;11852;50.082;18.554;2022-07-25T18:46:33;98002.0;;;26.52;42.58
23361;BME280;11852;50.082;18.554;2022-07-25T18:47:45;98002.5;;;26.53;42.23
23361;BME280;11852;50.082;18.554;2022-07-25T18:48:51;97999.5;;;26.49;42.44
23361;BME280;11852;50.082;18.554;2022-07-25T18:50:02;97999.5;;;26.41;42.98
23361;BME280;11852;50.082;18.554;2022-07-25T18:51:11;97998.5;;;26.43;42.94
23361;BME280;11852;50.082;18.554;2022-07-25T18:52:16;97992.5;;;26.33;42.96
23361;BME280;11852;50.082;18.554;2022-07-25T18:53:22;97994.5;;;26.26;42.97
23361;BME280;11852;50.082;18.554;2022-07-25T18:54:27;98001.0;;;26.29;42.79
23361;BME280;11852;50.082;18.554;2022-07-25T18:55:37;98000.0;;;26.29;42.78
23361;BME280;11852;50.082;18.554;2022-07-25T18:56:55;97999.0;;;26.24;42.79
23361;BME280;11852;50.082;18.554;2022-07-25T18:58:00;98002.5;;;26.25;42.63
23361;BME280;11852;50.082;18.554;2022-07-25T18:59:05;98000.5;;;26.26;42.63
23361;BME280;11852;50.082;18.554;2022-07-25T19:00:11;98003.0;;;26.17;42.94
23361;BME280;11852;50.082;18.554;2022-07-25T19:01:17;98004.0;;;26.11;43.17
23361;BME280;11852;50.082;18.554;2022-07-25T19:02:26;98003.0;;;26.04;43.25
23361;BME280;11852;50.082;18.554;2022-07-25T19:03:31;98001.5;;;26.1;43.17
23361;BME280;11852;50.082;18.554;2022-07-25T19:05:00;97998.5;;;26.0;43.33
23361;BME280;11852;50.082;18.554;2022-07-25T19:06:11;98002.5;;;26.0;43.42
23361;BME280;11852;50.082;18.554;2022-07-25T19:07:17;98002.0;;;25.99;43.35
23361;BME280;11852;50.082;18.554;2022-07-25T19:08:34;98004.5;;;25.9;43.51
23361;BME280;11852;50.082;18.554;2022-07-25T19:09:41;98005.5;;;25.9;43.58
23361;BME280;11852;50.082;18.554;2022-07-25T19:10:47;98004.5;;;25.9;43.53
23361;BME280;11852;50.082;18.554;2022-07-25T19:11:58;98001.5;;;25.79;43.73
23361;BME280;11852;50.082;18.554;2022-07-25T19:13:03;98003.5;;;25.77;43.96
23361;BME280;11852;50.082;18.554;2022-07-25T19:14:16;98002.5;;;25.82;43.85
23361;BME280;11852;50.082;18.554;2022-07-25T19:15:50;98003.0;;;25.78;43.96
23361;BME280;11852;50.082;18.554;2022-07-25T19:17:10;98003.5;;;25.76;44.21
23361;BME280;11852;50.082;18.554;2022-07-25T19:18:15;98003.0;;;25.76;44.56
23361;BME280;11852;50.082;18.554;2022-07-25T19:19:28;98004.5;;;25.65;44.39
23361;BME280;11852;50.082;18.554;2022-07-25T19:20:52;98005.0;;;25.66;44.83
23361;BME280;11852;50.082;18.554;2022-07-25T19:22:20;98004.5;;;25.59;44.65
23361;BME280;11852;50.082;18.554;2022-07-25T19:23:31;97997.5;;;25.54;44.69
23361;BME280;11852;50.082;18.554;2022-07-25T19:24:41;97996.5;;;25.47;44.71
23361;BME280;11852;50.082;18.554;2022-07-25T19:36:06;98000.0;;;25.19;45.27
23361;BME280;11852;50.082;18.554;2022-07-25T19:37:57;98002.0;;;25.14;45.36
23361;BME280;11852;50.082;18.554;2022-07-25T19:39:13;98000.5;;;25.07;45.11
23361;BME280;11852;50.082;18.554;2022-07-25T19:40:31;98002.5;;;25.08;45.22
23361;BME280;11852;50.082;18.554;2022-07-25T19:41:38;98003.0;;;25.07;45.39
23361;BME280;11852;50.082;18.554;2022-07-25T19:42:40;98006.0;;;25.1;45.11
23361;BME280;11852;50.082;18.554;2022-07-25T19:43:46;98002.5;;;25.1;45.28
23361;BME280;11852;50.082;18.554;2022-07-25T19:44:51;98005.01;;;25.09;45.31
23361;BME280;11852;50.082;18.554;2022-07-25T19:45:56;98004.51;;;25.08;45.33
23361;BME280;11852;50.082;18.554;2022-07-25T19:47:00;98004.0;;;25.06;45.21
23361;BME280;11852;50.082;18.554;2022-07-25T19:48:06;98002.0;;;25.05;45.26
23361;BME280;11852;50.082;18.554;2022-07-25T19:49:25;98002.0;;;25.03;45.28
23361;BME280;11852;50.082;18.554;2022-07-25T19:50:31;98002.0;;;25.02;45.23
23361;BME280;11852;50.082;18.554;2022-07-25T19:51:45;98002.5;;;25.01;45.31
23361;BME280;11852;50.082;18.554;2022-07-25T19:53:09;98001.5;;;24.99;45.47
23361;BME280;11852;50.082;18.554;2022-07-25T19:54:18;98002.0;;;24.98;45.37
23361;BME280;11852;50.082;18.554;2022-07-25T19:55:23;98004.51;;;24.97;45.44
23361;BME280;11852;50.082;18.554;2022-07-25T19:56:30;98002.0;;;24.95;45.64
23361;BME280;11852;50.082;18.554;2022-07-25T19:57:36;98004.51;;;24.93;45.5
23361;BME280;11852;50.082;18.554;2022-07-25T19:58:41;98002.5;;;24.92;45.5
23361;BME280;11852;50.082;18.554;2022-07-25T19:59:47;98004.0;;;24.92;45.69
23361;BME280;11852;50.082;18.554;2022-07-25T20:00:52;98003.0;;;24.9;45.67
23361;BME280;11852;50.082;18.554;2022-07-25T20:02:03;98002.5;;;24.89;45.66
23361;BME280;11852;50.082;18.554;2022-07-25T20:03:09;98004.0;;;24.72;46.24
23361;BME280;11852;50.082;18.554;2022-07-25T20:04:13;98002.5;;;24.7;46.06
23361;BME280;11852;50.082;18.554;2022-07-25T20:05:17;98002.5;;;24.7;46.06
23361;BME280;11852;50.082;18.554;2022-07-25T20:06:27;98005.01;;;24.67;46.21
23361;BME280;11852;50.082;18.554;2022-07-25T20:07:36;98003.0;;;24.66;46.14
23361;BME280;11852;50.082;18.554;2022-07-25T20:08:42;98006.0;;;24.65;46.29
23361;BME280;11852;50.082;18.554;2022-07-25T20:09:53;98005.51;;;24.65;46.32
23361;BME280;11852;50.082;18.554;2022-07-25T20:11:07;98004.51;;;24.63;46.28